createdAt,value
2022-12-09T00:01:23.731Z,-0.74
2022-12-09T00:03:27.189Z,-0.71
2022-12-09T00:05:31.882Z,-0.74
2022-12-09T00:07:38.848Z,-0.76
2022-12-09T00:09:42.218Z,-0.76
2022-12-09T00:11:45.760Z,-0.81
2022-12-09T00:13:50.205Z,-0.79
2022-12-09T00:15:53.503Z,-0.80
2022-12-09T00:17:56.760Z,-1.07
2022-12-09T00:20:00.134Z,-1.08
2022-12-09T00:22:04.938Z,-1.04
2022-12-09T00:24:10.813Z,-1.20
2022-12-09T00:26:14.831Z,-1.16
2022-12-09T00:28:18.036Z,-1.17
2022-12-09T00:30:21.264Z,-2.68
2022-12-09T00:32:25.857Z,-2.42
2022-12-09T00:34:29.122Z,-1.45
2022-12-09T00:36:32.349Z,-3.02
2022-12-09T00:38:37.363Z,-1.93
2022-12-09T00:40:40.479Z,-1.98
2022-12-09T00:42:43.666Z,-1.89
2022-12-09T00:44:46.985Z,-1.63
2022-12-09T00:46:50.296Z,-1.75
2022-12-09T00:48:53.784Z,-1.68
2022-12-09T00:50:57.266Z,-1.88
2022-12-09T00:53:00.663Z,-4.10
2022-12-09T00:55:06.054Z,-2.04
2022-12-09T00:57:09.328Z,-5.94
2022-12-09T00:59:12.514Z,-2.33
2022-12-09T01:01:19.672Z,-2.96
2022-12-09T01:03:23.239Z,-2.78
2022-12-09T01:05:26.755Z,-2.66
2022-12-09T01:07:29.891Z,-8.78
2022-12-09T01:09:35.507Z,-2.68
2022-12-09T01:11:40.173Z,-2.89
2022-12-09T01:13:43.482Z,-2.66
2022-12-09T01:15:46.863Z,-2.47
2022-12-09T01:17:50.237Z,-4.45
2022-12-09T01:19:53.661Z,-2.13
2022-12-09T01:21:57.649Z,-3.12
2022-12-09T01:24:01.923Z,-5.87
2022-12-09T01:26:06.683Z,-4.83
2022-12-09T01:28:12.041Z,-2.12
2022-12-09T01:30:16.537Z,-2.19
2022-12-09T01:32:19.808Z,-2.15
2022-12-09T01:34:23.185Z,-2.98
2022-12-09T01:36:31.700Z,-2.11
2022-12-09T01:38:35.378Z,-2.17
2022-12-09T01:40:38.672Z,-2.31
2022-12-09T01:42:42.478Z,-3.18
2022-12-09T01:45:39.581Z,-2.00
2022-12-09T01:47:42.974Z,-1.89
2022-12-09T01:49:48.189Z,-4.30
2022-12-09T01:52:02.829Z,-1.79
2022-12-09T01:54:07.608Z,-1.80
2022-12-09T01:56:16.445Z,-1.83
2022-12-09T01:58:20.803Z,-1.87
2022-12-09T02:00:24.716Z,-1.96
2022-12-09T02:02:30.643Z,-7.35
2022-12-09T02:04:39.241Z,-4.26
2022-12-09T02:06:43.555Z,-5.85
2022-12-09T02:08:50.788Z,-2.31
2022-12-09T02:11:08.456Z,-2.34
2022-12-09T02:13:26.895Z,-4.45
2022-12-09T02:15:37.592Z,-2.31
2022-12-09T02:17:50.343Z,-6.17
2022-12-09T02:20:04.041Z,-2.84
2022-12-09T02:22:09.681Z,-2.27
2022-12-09T02:24:19.565Z,-2.33
2022-12-09T02:26:33.165Z,-2.99
2022-12-09T02:28:56.475Z,-2.54
2022-12-09T02:31:11.450Z,-2.61
2022-12-09T02:33:36.872Z,-5.48
2022-12-09T02:35:50.022Z,-7.25
2022-12-09T02:38:00.215Z,-4.28
2022-12-09T02:40:11.188Z,-2.53
2022-12-09T02:42:21.251Z,-4.94
2022-12-09T02:44:26.837Z,-2.49
2022-12-09T02:46:31.686Z,-2.47
2022-12-09T02:48:38.777Z,-2.34
2022-12-09T02:50:45.719Z,-2.36
2022-12-09T02:52:52.122Z,-4.75
2022-12-09T02:54:56.240Z,-3.24
2022-12-09T02:57:08.164Z,-8.19
2022-12-09T02:59:12.852Z,-2.17
2022-12-09T03:01:24.929Z,-3.57
2022-12-09T03:03:32.973Z,-2.27
2022-12-09T03:05:47.881Z,-5.19
2022-12-09T03:08:03.407Z,-2.58
2022-12-09T03:10:14.011Z,-2.47
2022-12-09T03:12:21.467Z,-2.37
2022-12-09T03:14:30.923Z,-6.17
2022-12-09T03:16:37.943Z,-2.15
2022-12-09T03:18:47.199Z,-2.45
2022-12-09T03:20:51.979Z,-2.07
2022-12-09T03:23:01.411Z,-2.07
2022-12-09T03:25:09.839Z,-2.07
2022-12-09T03:27:18.722Z,-2.05
2022-12-09T03:29:26.288Z,-2.65
2022-12-09T03:31:32.560Z,-2.16
2022-12-09T03:33:35.860Z,-2.09
2022-12-09T03:35:44.665Z,-3.52
2022-12-09T03:37:51.298Z,-6.29
2022-12-09T03:39:56.158Z,-4.98
2022-12-09T03:42:03.613Z,-2.13
2022-12-09T03:44:14.554Z,-7.57
2022-12-09T03:46:17.810Z,-2.24
2022-12-09T03:48:21.501Z,-4.65
2022-12-09T03:50:28.049Z,-2.33
2022-12-09T03:52:39.096Z,-8.39
2022-12-09T03:54:46.677Z,-2.25
2022-12-09T03:56:54.437Z,-7.56
2022-12-09T03:59:02.064Z,-2.10
2022-12-09T04:01:07.085Z,-3.09
2022-12-09T04:03:10.837Z,-1.97
2022-12-09T04:05:14.795Z,-1.89
2022-12-09T04:07:19.041Z,-1.90
2022-12-09T04:09:23.202Z,-2.01
2022-12-09T04:11:28.307Z,-4.48
2022-12-09T04:13:31.981Z,-14.18
2022-12-09T04:15:35.331Z,-2.69
2022-12-09T04:17:38.631Z,-1.83
2022-12-09T04:19:41.986Z,-2.97
2022-12-09T04:21:45.395Z,-3.52
2022-12-09T04:23:48.669Z,-1.78
2022-12-09T04:25:51.900Z,-4.22
2022-12-09T04:27:56.464Z,-3.34
2022-12-09T04:29:59.902Z,-12.64
2022-12-09T04:32:03.606Z,-1.95
2022-12-09T04:34:09.841Z,-1.85
2022-12-09T04:36:17.426Z,-4.68
2022-12-09T04:38:20.777Z,-2.84
2022-12-09T04:40:24.775Z,-3.13
2022-12-09T04:42:29.923Z,-1.80
2022-12-09T04:44:34.475Z,-1.81
2022-12-09T04:46:37.752Z,-1.82
2022-12-09T04:48:41.848Z,-2.02
2022-12-09T04:50:45.451Z,-2.22
2022-12-09T04:52:48.896Z,-2.04
2022-12-09T04:54:52.225Z,-2.03
2022-12-09T04:56:55.739Z,-3.31
2022-12-09T04:58:59.306Z,-5.45
2022-12-09T05:01:08.609Z,-2.66
2022-12-09T05:03:12.328Z,-3.53
2022-12-09T05:05:15.953Z,-2.14
2022-12-09T05:07:19.568Z,-2.22
2022-12-09T05:09:23.142Z,-2.14
2022-12-09T05:11:26.919Z,-1.97
2022-12-09T05:13:31.472Z,-1.94
2022-12-09T05:15:34.969Z,-2.16
2022-12-09T05:17:39.914Z,-2.19
2022-12-09T05:19:43.265Z,-2.22
2022-12-09T05:21:46.563Z,-2.41
2022-12-09T05:23:50.425Z,-2.17
2022-12-09T05:25:55.556Z,-2.11
2022-12-09T05:27:59.452Z,-2.17
2022-12-09T05:30:02.777Z,-2.08
2022-12-09T05:32:06.459Z,-1.99
2022-12-09T05:34:11.580Z,-1.87
2022-12-09T05:36:18.856Z,-1.94
2022-12-09T05:38:24.683Z,-2.36
2022-12-09T05:40:29.208Z,-1.83
2022-12-09T05:42:36.493Z,-1.70
2022-12-09T05:44:44.405Z,-4.51
2022-12-09T05:46:47.799Z,-1.68
2022-12-09T05:48:51.600Z,-1.58
2022-12-09T05:51:00.658Z,-1.50
2022-12-09T05:53:04.523Z,-2.89
2022-12-09T05:55:11.022Z,-1.50
2022-12-09T05:57:14.427Z,-1.50
2022-12-09T05:59:17.892Z,-3.24
2022-12-09T06:01:21.436Z,-5.04
2022-12-09T06:03:25.572Z,-1.68
2022-12-09T06:05:29.182Z,-1.48
2022-12-09T06:07:34.877Z,-3.95
2022-12-09T06:09:38.495Z,-1.58
2022-12-09T06:11:42.461Z,-1.53
2022-12-09T06:13:46.592Z,-2.70
2022-12-09T06:15:49.996Z,-1.75
2022-12-09T06:17:53.756Z,-1.49
2022-12-09T06:19:57.106Z,-1.36
2022-12-09T06:22:00.758Z,-1.57
2022-12-09T06:24:07.415Z,-1.51
2022-12-09T06:26:18.425Z,-3.48
2022-12-09T06:28:22.130Z,-1.44
2022-12-09T06:30:25.405Z,-3.40
2022-12-09T06:32:28.700Z,-1.47
2022-12-09T06:34:32.221Z,-2.92
2022-12-09T06:36:35.707Z,-1.52
2022-12-09T06:38:39.424Z,-1.71
2022-12-09T06:40:45.316Z,-3.14
2022-12-09T06:42:50.580Z,-1.88
2022-12-09T06:44:53.961Z,-1.53
2022-12-09T06:46:57.832Z,-1.56
2022-12-09T06:49:01.782Z,-1.92
2022-12-09T06:51:05.627Z,-1.46
2022-12-09T06:53:09.553Z,-1.57
2022-12-09T06:55:13.576Z,-1.54
2022-12-09T06:57:19.002Z,-1.48
2022-12-09T06:59:22.305Z,-1.47
2022-12-09T07:01:26.889Z,-1.57
2022-12-09T07:03:30.725Z,-1.51
2022-12-09T07:05:34.349Z,-1.40
2022-12-09T07:07:38.092Z,-1.59
2022-12-09T07:09:41.920Z,-2.51
2022-12-09T07:11:47.287Z,-1.18
2022-12-09T07:13:54.263Z,-1.10
2022-12-09T07:15:57.609Z,-1.05
2022-12-09T07:18:01.170Z,-1.27
2022-12-09T07:20:07.522Z,-1.02
2022-12-09T07:22:12.075Z,-0.80
2022-12-09T07:24:15.635Z,-0.89
2022-12-09T07:26:20.719Z,-1.07
2022-12-09T07:28:24.398Z,-1.00
2022-12-09T07:30:29.355Z,-0.75
2022-12-09T07:32:33.080Z,-0.59
2022-12-09T07:34:36.677Z,-1.15
2022-12-09T07:36:40.712Z,-1.07
2022-12-09T07:38:44.520Z,-0.83
2022-12-09T07:40:48.013Z,-0.87
2022-12-09T07:42:56.148Z,-0.76
2022-12-09T07:45:02.404Z,-4.04
2022-12-09T07:47:07.105Z,-0.74
2022-12-09T07:49:12.734Z,-0.62
2022-12-09T07:51:16.984Z,-2.27
2022-12-09T07:53:20.521Z,-0.53
2022-12-09T07:55:24.058Z,-0.39
2022-12-09T07:57:27.889Z,-0.46
2022-12-09T07:59:31.332Z,-0.68
2022-12-09T08:01:35.147Z,-7.46
2022-12-09T08:03:42.403Z,-1.15
2022-12-09T08:05:49.863Z,-0.23
2022-12-09T08:07:53.556Z,-0.45
2022-12-09T08:09:57.292Z,-0.28
2022-12-09T08:12:01.116Z,-0.20
2022-12-09T08:14:12.509Z,-0.36
2022-12-09T08:16:19.605Z,-6.14
2022-12-09T08:18:23.091Z,-0.15
2022-12-09T08:20:29.645Z,-0.31
2022-12-09T08:22:35.566Z,-0.55
2022-12-09T08:24:39.162Z,-0.38
2022-12-09T08:26:43.310Z,-0.26
2022-12-09T08:28:47.642Z,-0.39
2022-12-09T08:30:51.374Z,-0.43
2022-12-09T08:32:54.824Z,-0.71
2022-12-09T08:34:58.366Z,-0.36
2022-12-09T08:37:03.190Z,-0.20
2022-12-09T08:39:07.761Z,-0.18
2022-12-09T08:41:14.159Z,-0.13
2022-12-09T08:43:17.870Z,0.06
2022-12-09T08:45:21.313Z,0.11
2022-12-09T08:47:24.613Z,0.09
2022-12-09T08:49:29.818Z,0.14
2022-12-09T08:51:35.002Z,-5.32
2022-12-09T08:53:40.741Z,0.08
2022-12-09T08:55:44.340Z,-0.58
2022-12-09T08:57:47.707Z,0.53
2022-12-09T08:59:51.178Z,0.40
2022-12-09T09:01:54.776Z,-3.31
2022-12-09T09:03:58.928Z,-1.06
2022-12-09T09:06:09.593Z,0.38
2022-12-09T09:08:14.278Z,0.53
2022-12-09T09:10:19.428Z,0.34
2022-12-09T09:12:22.840Z,0.42
2022-12-09T09:14:26.328Z,0.43
2022-12-09T09:16:29.831Z,0.87
2022-12-09T09:18:33.431Z,-1.74
2022-12-09T09:20:37.144Z,1.05
2022-12-09T09:22:40.440Z,-2.26
2022-12-09T09:24:44.336Z,1.35
2022-12-09T09:26:50.903Z,1.40
2022-12-09T09:28:55.176Z,1.14
2022-12-09T09:31:02.645Z,0.69
2022-12-09T09:33:06.158Z,0.43
2022-12-09T09:35:10.271Z,0.69
2022-12-09T09:37:13.572Z,0.78
2022-12-09T09:39:16.787Z,0.45
2022-12-09T09:41:30.026Z,0.77
2022-12-09T09:43:38.354Z,0.65
2022-12-09T09:45:41.823Z,0.71
2022-12-09T09:47:50.228Z,-0.33
2022-12-09T09:49:59.622Z,0.81
2022-12-09T09:52:08.765Z,-1.99
2022-12-09T09:54:15.324Z,0.93
2022-12-09T09:56:27.879Z,-9.73
2022-12-09T09:58:42.891Z,1.08
2022-12-09T10:01:00.246Z,1.39
2022-12-09T10:03:11.090Z,1.55
2022-12-09T10:05:24.085Z,1.73
2022-12-09T10:07:43.379Z,1.64
2022-12-09T10:09:58.951Z,1.23
2022-12-09T10:12:14.360Z,1.22
2022-12-09T10:14:27.441Z,1.38
2022-12-09T10:16:43.630Z,0.92
2022-12-09T10:19:07.962Z,1.14
2022-12-09T10:21:18.023Z,0.85
2022-12-09T10:23:22.718Z,1.33
2022-12-09T10:25:29.184Z,1.66
2022-12-09T10:27:38.404Z,1.73
2022-12-09T10:29:56.620Z,1.86
2022-12-09T10:32:00.970Z,1.59
2022-12-09T10:34:04.699Z,1.03
2022-12-09T10:36:21.428Z,1.67
2022-12-09T10:38:26.818Z,1.90
2022-12-09T10:40:38.812Z,1.07
2022-12-09T10:43:05.680Z,1.69
2022-12-09T10:45:12.244Z,2.00
2022-12-09T10:47:27.162Z,2.30
2022-12-09T10:49:32.097Z,2.01
2022-12-09T10:51:37.420Z,1.60
2022-12-09T10:53:48.698Z,1.94
2022-12-09T10:55:55.468Z,1.57
2022-12-09T10:58:18.933Z,0.48
2022-12-09T11:00:34.452Z,1.50
2022-12-09T11:02:38.319Z,1.83
2022-12-09T11:04:44.186Z,1.53
2022-12-09T11:06:51.665Z,0.05
2022-12-09T11:09:01.153Z,0.93
2022-12-09T11:11:04.605Z,1.15
2022-12-09T11:13:11.694Z,1.25
2022-12-09T11:15:32.467Z,0.90
2022-12-09T11:17:39.143Z,1.86
2022-12-09T11:19:43.542Z,1.00
2022-12-09T11:21:47.030Z,1.28
2022-12-09T11:24:02.456Z,1.12
2022-12-09T11:26:12.328Z,1.53
2022-12-09T11:28:27.660Z,1.32
2022-12-09T11:30:36.616Z,1.42
2022-12-09T11:32:59.026Z,1.50
2022-12-09T11:35:03.121Z,1.32
2022-12-09T11:37:06.707Z,1.50
2022-12-09T11:39:20.818Z,-7.46
2022-12-09T11:41:43.482Z,1.70
2022-12-09T11:43:51.396Z,1.92
2022-12-09T11:45:55.944Z,2.13
2022-12-09T11:48:27.899Z,-1.99
2022-12-09T11:50:33.735Z,1.27
2022-12-09T11:52:36.924Z,2.40
2022-12-09T11:54:48.392Z,2.40
2022-12-09T11:56:53.002Z,1.81
2022-12-09T11:59:02.018Z,0.00
2022-12-09T12:01:13.671Z,-0.16
2022-12-09T12:03:23.635Z,0.76
2022-12-09T12:05:34.045Z,1.47
2022-12-09T12:07:48.198Z,0.06
2022-12-09T12:09:55.559Z,1.86
2022-12-09T12:12:15.770Z,1.86
2022-12-09T12:14:25.820Z,1.83
2022-12-09T12:16:39.670Z,1.73
2022-12-09T12:18:48.889Z,1.71
2022-12-09T12:37:33.669Z,3.92
2022-12-09T12:40:10.113Z,2.88
2022-12-09T12:42:22.563Z,2.66
2022-12-09T12:44:56.012Z,2.41
2022-12-09T12:47:05.666Z,2.14
2022-12-09T12:49:20.688Z,1.94
2022-12-09T12:51:30.502Z,1.88
2022-12-09T12:53:38.932Z,0.48
2022-12-09T12:55:50.295Z,1.24
2022-12-09T12:57:59.034Z,1.42
2022-12-09T13:00:07.245Z,1.31
2022-12-09T13:02:24.399Z,1.21
2022-12-09T13:04:32.535Z,1.28
2022-12-09T13:06:42.475Z,0.66
2022-12-09T13:08:48.376Z,1.41
2022-12-09T13:10:54.213Z,1.37
2022-12-09T13:12:58.531Z,0.98
2022-12-09T13:15:01.285Z,1.40
2022-12-09T13:17:07.603Z,1.18
2022-12-09T13:19:25.559Z,1.13
2022-12-09T13:21:28.232Z,0.49
2022-12-09T13:23:44.824Z,1.06
2022-12-09T13:25:53.743Z,1.08
2022-12-09T13:28:01.232Z,1.50
2022-12-09T13:30:06.965Z,0.35
2022-12-09T13:32:21.375Z,1.41
2022-12-09T13:34:30.412Z,1.50
2022-12-09T13:36:37.574Z,1.52
2022-12-09T13:38:42.416Z,1.47
2022-12-09T13:40:45.121Z,1.49
2022-12-09T13:42:56.564Z,1.51
2022-12-09T13:45:05.339Z,1.52
2022-12-09T13:47:28.075Z,1.62
2022-12-09T13:49:30.755Z,1.46
2022-12-09T13:51:45.053Z,1.36
2022-12-09T13:53:52.013Z,1.29
2022-12-09T13:55:57.364Z,1.15
2022-12-09T13:58:12.574Z,1.20
2022-12-09T14:00:17.818Z,0.94
2022-12-09T14:02:27.063Z,-0.44
2022-12-09T14:04:31.758Z,0.65
2022-12-09T14:06:39.510Z,-0.07
2022-12-09T14:08:47.838Z,1.00
2022-12-09T14:10:52.146Z,0.86
2022-12-09T14:13:22.508Z,0.85
2022-12-09T14:15:37.478Z,0.68
2022-12-09T14:17:59.886Z,0.74
2022-12-09T14:20:12.957Z,0.78
2022-12-09T14:22:35.672Z,0.82
2022-12-09T14:24:38.641Z,0.07
2022-12-09T14:26:45.589Z,0.85
2022-12-09T14:28:55.102Z,1.04
2022-12-09T14:31:03.398Z,0.55
2022-12-09T14:33:22.138Z,0.91
2022-12-09T14:35:29.979Z,-0.10
2022-12-09T14:37:55.424Z,0.72
2022-12-09T14:40:03.303Z,0.58
2022-12-09T14:42:10.620Z,0.29
2022-12-09T14:44:20.949Z,-0.14
2022-12-09T14:46:27.096Z,0.74
2022-12-09T14:48:32.589Z,0.86
2022-12-09T14:50:38.435Z,0.75
2022-12-09T14:52:50.965Z,0.14
2022-12-09T14:54:55.119Z,0.91
2022-12-09T14:57:01.168Z,1.02
2022-12-09T14:59:06.977Z,0.73
2022-12-09T15:01:11.320Z,0.70
2022-12-09T15:03:39.509Z,0.62
2022-12-09T15:05:41.319Z,0.39
2022-12-09T15:07:45.786Z,0.68
2022-12-09T15:09:50.355Z,0.80
2022-12-09T15:11:53.093Z,0.63
2022-12-09T15:14:17.458Z,-2.58
2022-12-09T15:16:23.888Z,0.60
2022-12-09T15:18:26.922Z,-0.36
2022-12-09T15:20:31.113Z,0.64
2022-12-09T15:22:34.326Z,-0.52
2022-12-09T15:24:49.638Z,0.52
2022-12-09T15:26:58.593Z,0.70
2022-12-09T15:29:05.097Z,0.56
2022-12-09T15:31:18.337Z,0.38
2022-12-09T15:33:22.775Z,0.67
2022-12-09T15:35:28.219Z,-0.52
2022-12-09T15:37:31.314Z,0.45
2022-12-09T15:39:39.770Z,0.43
2022-12-09T15:42:01.971Z,0.57
2022-12-09T15:44:08.651Z,-1.78
2022-12-09T15:46:12.101Z,0.60
2022-12-09T15:48:18.946Z,-0.45
2022-12-09T15:50:26.306Z,0.57
2022-12-09T15:53:18.796Z,0.35
2022-12-09T15:56:57.784Z,-0.15
2022-12-09T15:59:06.257Z,0.03
2022-12-09T16:01:09.144Z,0.74
2022-12-09T16:03:11.867Z,0.37
2022-12-09T16:05:14.590Z,0.59
2022-12-09T16:07:20.042Z,0.58
2022-12-09T16:09:22.954Z,-1.23
2022-12-09T16:11:39.169Z,0.80
2022-12-09T16:14:01.209Z,0.63
2022-12-09T16:16:24.844Z,0.33
2022-12-09T16:18:31.256Z,0.70
2022-12-09T16:20:40.140Z,0.23
2022-12-09T16:22:45.504Z,0.80
2022-12-09T16:25:14.293Z,0.33
2022-12-09T16:27:18.597Z,0.74
2022-12-09T16:29:26.693Z,0.77
2022-12-09T16:31:30.176Z,-0.64
2022-12-09T16:33:36.911Z,0.86
2022-12-09T16:35:42.820Z,-0.15
2022-12-09T16:38:17.355Z,0.16
2022-12-09T16:40:52.801Z,0.06
2022-12-09T16:42:56.788Z,-0.20
2022-12-09T16:45:22.842Z,0.77
2022-12-09T16:47:27.437Z,0.72
2022-12-09T16:49:30.125Z,0.76
2022-12-09T16:51:33.095Z,0.80
2022-12-09T16:53:42.503Z,0.76
2022-12-09T16:55:50.964Z,0.89
2022-12-09T16:57:54.101Z,0.83
2022-12-09T16:59:56.801Z,1.02
2022-12-09T17:02:00.201Z,0.98
2022-12-09T17:04:05.248Z,0.07
2022-12-09T17:06:08.717Z,-0.83
2022-12-09T17:08:11.448Z,1.12
2022-12-09T17:10:16.745Z,0.81
2022-12-09T17:12:19.484Z,0.83
2022-12-09T17:14:22.189Z,0.70
2022-12-09T17:16:26.638Z,0.81
2022-12-09T17:18:30.219Z,-0.30
2022-12-09T17:20:32.965Z,0.84
2022-12-09T17:22:35.732Z,0.81
2022-12-09T17:24:38.630Z,0.66
2022-12-09T17:26:42.676Z,0.56
2022-12-09T17:28:46.128Z,0.52
2022-12-09T17:30:48.834Z,0.35
2022-12-09T17:32:51.578Z,0.28
2022-12-09T17:34:54.525Z,0.33
2022-12-09T17:36:58.341Z,0.38
2022-12-09T17:39:02.220Z,0.04
2022-12-09T17:41:05.674Z,0.37
2022-12-09T17:43:09.900Z,0.34
2022-12-09T17:45:12.610Z,0.48
2022-12-09T17:47:15.318Z,0.46
2022-12-09T17:49:18.635Z,0.54
2022-12-09T17:51:21.391Z,0.41
2022-12-09T17:53:24.632Z,0.47
2022-12-09T17:55:27.372Z,0.46
2022-12-09T17:57:30.293Z,0.43
2022-12-09T17:59:34.374Z,0.46
2022-12-09T18:01:38.336Z,0.16
2022-12-09T18:03:55.606Z,0.44
2022-12-09T18:06:00.170Z,-0.42
2022-12-09T18:08:03.137Z,0.55
2022-12-09T18:10:06.931Z,0.51
2022-12-09T18:12:09.829Z,0.52
2022-12-09T18:14:13.009Z,-1.01
2022-12-09T18:16:17.135Z,0.10
2022-12-09T18:18:19.893Z,0.40
2022-12-09T18:20:22.622Z,0.45
2022-12-09T18:22:25.374Z,0.23
2022-12-09T18:24:29.411Z,-2.27
2022-12-09T18:26:36.639Z,0.46
2022-12-09T18:28:42.679Z,0.59
2022-12-09T18:30:45.458Z,0.57
2022-12-09T18:32:49.622Z,0.40
2022-12-09T18:34:52.378Z,0.52
2022-12-09T18:36:55.532Z,0.56
2022-12-09T18:38:59.716Z,0.43
2022-12-09T18:41:02.493Z,0.52
2022-12-09T18:43:05.261Z,0.43
2022-12-09T18:45:10.564Z,0.34
2022-12-09T18:47:13.427Z,0.17
2022-12-09T18:49:19.625Z,0.08
2022-12-09T18:51:22.792Z,0.39
2022-12-09T18:53:25.650Z,0.44
2022-12-09T18:55:28.416Z,0.31
2022-12-09T18:57:31.212Z,0.53
2022-12-09T18:59:33.948Z,-1.08
2022-12-09T19:01:40.401Z,0.43
2022-12-09T19:03:43.513Z,0.24
2022-12-09T19:05:47.607Z,-0.66
2022-12-09T19:07:50.424Z,0.50
2022-12-09T19:09:53.167Z,0.42
2022-12-09T19:11:56.003Z,0.72
2022-12-09T19:13:59.301Z,0.81
2022-12-09T19:16:04.956Z,0.20
2022-12-09T19:18:07.699Z,0.55
2022-12-09T19:20:11.620Z,0.40
2022-12-09T19:22:15.933Z,0.59
2022-12-09T19:24:20.563Z,-1.39
2022-12-09T19:26:25.698Z,0.59
2022-12-09T19:28:28.431Z,0.41
2022-12-09T19:30:31.181Z,0.12
2022-12-09T19:34:56.656Z,0.63
2022-12-09T19:37:01.389Z,0.59
2022-12-09T19:39:08.241Z,0.73
2022-12-09T19:41:11.330Z,0.43
2022-12-09T19:43:14.048Z,0.42
2022-12-09T19:45:16.943Z,0.57
2022-12-09T19:47:19.665Z,0.52
2022-12-09T19:49:23.469Z,0.68
2022-12-09T19:51:27.250Z,-0.68
2022-12-09T19:53:30.001Z,-0.15
2022-12-09T19:55:35.429Z,0.35
2022-12-09T19:57:38.191Z,0.80
2022-12-09T19:59:40.917Z,0.67
2022-12-09T20:01:45.449Z,0.83
2022-12-09T20:03:50.324Z,0.67
2022-12-09T20:05:55.739Z,0.84
2022-12-09T20:07:58.532Z,0.74
2022-12-09T20:10:01.403Z,0.69
2022-12-09T20:12:05.932Z,0.64
2022-12-09T20:14:09.793Z,0.66
2022-12-09T20:16:14.934Z,0.67
2022-12-09T20:18:17.684Z,-0.59
2022-12-09T20:20:20.386Z,0.76
2022-12-09T20:22:23.121Z,0.34
2022-12-09T20:24:26.722Z,0.20
2022-12-09T20:26:31.154Z,0.70
2022-12-09T20:28:35.894Z,0.67
2022-12-09T20:30:38.577Z,0.80
2022-12-09T20:32:41.377Z,0.72
2022-12-09T20:34:44.056Z,0.62
2022-12-09T20:36:47.237Z,0.55
2022-12-09T20:38:51.870Z,-1.34
2022-12-09T20:40:55.067Z,0.85
2022-12-09T20:42:57.765Z,0.73
2022-12-09T20:45:01.802Z,-0.13
2022-12-09T20:47:04.611Z,0.35
2022-12-09T20:49:07.325Z,0.41
2022-12-09T20:51:11.872Z,0.70
2022-12-09T20:53:14.601Z,0.80
2022-12-09T20:55:17.783Z,0.47
2022-12-09T20:57:20.498Z,0.04
2022-12-09T20:59:23.270Z,0.82
2022-12-09T21:01:29.255Z,0.44
2022-12-09T21:03:31.991Z,0.74
2022-12-09T21:05:34.705Z,0.26
2022-12-09T21:07:37.469Z,0.19
2022-12-09T21:09:40.395Z,0.80
2022-12-09T21:11:43.125Z,0.62
2022-12-09T21:13:47.181Z,0.33
2022-12-09T21:15:49.840Z,0.90
2022-12-09T21:17:54.970Z,0.83
2022-12-09T21:19:57.588Z,0.47
2022-12-09T21:22:00.242Z,0.66
2022-12-09T21:24:03.730Z,0.78
2022-12-09T21:26:08.460Z,-1.33
2022-12-09T21:28:11.068Z,0.75
2022-12-09T21:30:14.040Z,-0.42
2022-12-09T21:32:16.716Z,0.74
2022-12-09T21:34:24.077Z,0.93
2022-12-09T21:36:28.314Z,0.58
2022-12-09T21:38:31.638Z,-0.24
2022-12-09T21:40:34.369Z,0.70
2022-12-09T21:42:37.127Z,0.83
2022-12-09T21:44:40.997Z,0.72
2022-12-09T21:46:44.041Z,0.69
2022-12-09T21:48:51.748Z,0.70
2022-12-09T21:50:56.734Z,-0.21
2022-12-09T21:52:59.415Z,-0.53
2022-12-09T21:55:02.159Z,0.76
2022-12-09T21:57:04.994Z,0.80
2022-12-09T21:59:08.100Z,-0.26
2022-12-09T22:01:12.660Z,-4.70
2022-12-09T22:03:15.366Z,1.01
2022-12-09T22:05:18.109Z,0.94
2022-12-09T22:07:22.115Z,-0.35
2022-12-09T22:09:24.795Z,0.90
2022-12-09T22:11:29.224Z,0.93
2022-12-09T22:13:34.959Z,0.84
2022-12-09T22:15:43.216Z,0.86
2022-12-09T22:17:45.949Z,0.89
2022-12-09T22:20:06.295Z,0.71
2022-12-09T22:22:11.309Z,0.73
2022-12-09T22:24:15.714Z,0.30
2022-12-09T22:26:21.571Z,0.83
2022-12-09T22:28:24.300Z,1.01
2022-12-09T22:30:27.366Z,0.94
2022-12-09T22:32:30.565Z,-0.33
2022-12-09T22:34:33.420Z,0.86
2022-12-09T22:36:37.058Z,-0.03
2022-12-09T22:38:41.920Z,0.07
2022-12-09T22:40:46.090Z,0.76
2022-12-09T22:42:49.515Z,0.80
2022-12-09T22:44:52.264Z,-1.40
2022-12-09T22:46:55.109Z,0.55
2022-12-09T22:48:58.956Z,0.08
2022-12-09T22:51:04.739Z,0.80
2022-12-09T22:53:07.482Z,0.52
2022-12-09T22:55:10.609Z,0.06
2022-12-09T22:57:14.765Z,0.59
2022-12-09T22:59:18.230Z,0.75
2022-12-09T23:01:23.111Z,0.89
2022-12-09T23:03:26.136Z,1.04
2022-12-09T23:05:34.582Z,0.95
2022-12-09T23:07:38.167Z,0.92
2022-12-09T23:09:40.901Z,0.93
2022-12-09T23:11:43.657Z,1.08
2022-12-09T23:13:49.657Z,-0.30
2022-12-09T23:15:52.491Z,1.37
2022-12-09T23:17:55.714Z,1.37
2022-12-09T23:19:58.383Z,1.23
2022-12-09T23:22:01.066Z,1.06
2022-12-09T23:24:06.613Z,1.33
2022-12-09T23:26:11.016Z,1.45
2022-12-09T23:28:13.717Z,0.57
2022-12-09T23:30:17.982Z,1.51
2022-12-09T23:32:20.737Z,1.55
2022-12-09T23:34:23.652Z,1.38
2022-12-09T23:36:30.902Z,1.43
2022-12-09T23:38:33.740Z,0.24
2022-12-09T23:40:36.450Z,1.53
2022-12-09T23:42:39.164Z,1.50
2022-12-09T23:44:42.114Z,0.99
2022-12-09T23:46:46.509Z,1.32
2022-12-09T23:48:50.212Z,1.21
2022-12-09T23:50:53.873Z,0.90
2022-12-09T23:52:56.528Z,-1.05
2022-12-09T23:55:04.082Z,-0.56
2022-12-09T23:57:07.340Z,0.88
2022-12-09T23:59:13.074Z,0.54
